Terminal Aerodrome Forecast
Issued by NWS Charleston, WV

Current Version | Previous Version | Graphics & Text | Print | Product List | Glossary On
Versions: 1 2 3 4 5 6 7 8 9 10 11 12 13 14 15 16 17 18 19 20 21
523
FTUS41 KRLX 100542
TAFCRW
TAF
KCRW 100542Z 1006/1106 26009KT 3SM -SHSN SCT015 OVC025
      TEMPO 1006/1010 1SM -SHSN SCT008 OVC015
     FM101000 26009KT P6SM -SHSN OVC025
     FM101800 26009KT P6SM -SHSN OVC035
     FM110100 26009KT P6SM BKN025
     FM110300 26010G19KT P6SM BKN025=

USA.gov is the U.S. government's official web portal to all federal, state and local government web resources and services.